Have a Safe July 4th! 

Flight Track Log - Related Links

Times and Time Zones

All times are in EDT time to prevent confusion due to time zone crossing. See the SKW6238 flight status page for this flight to view local times or setup timezone preferences in your user account.

Time Position Orientation Groundspeed Altitude Reporting Facility
EDT Latitude Longitude Course Direction KTS MPH feet Rate Location/Type
Sat 04:32:26 PM 40.9714 -124.1464 227° Southwest 161 185 3,100  Level Oakland Center
Sat 04:33:27 PM 40.9214 -124.1386 173° South 173 199 4,700 1,672 Climbing Oakland Center
Sat 04:34:28 PM 40.8683 -124.1206 166° South 187 215 6,500 1,770 Climbing Oakland Center
Sat 04:35:00 PM 40.7044 -124.2428 169° South  Level FlightAware Approximate
Sat 04:35:29 PM 40.8161 -124.0942 159° South 196 226 8,300  Level Oakland Center
Sat 04:36:00 PM 40.6348 -124.2094 150° Southeast  Level FlightAware Approximate
Sat 04:36:30 PM 40.7594 -124.0694 162° South 205 236 10,000  Level Oakland Center
Sat 04:37:34 PM 40.6858 -124.0317 159° South 223 257 11,800 1,632 Climbing Seattle Center
Sat 04:38:35 PM 40.6194 -124.0067 164° South 240 276 13,400 1,426 Climbing Seattle Center
Sat 04:39:36 PM 40.5528 -123.9747 160° South 249 287 14,700 1,230 Climbing Seattle Center
Sat 04:40:37 PM 40.4825 -123.9425 161° South 259 298 15,900 1,230 Climbing Seattle Center
Sat 04:41:38 PM 40.4108 -123.9094 161° South 266 306 17,200 1,100 Climbing Seattle Center
Sat 04:42:37 PM 40.3392 -123.8767 161° South 266 306 18,100 900 Climbing Oakland Center
Sat 04:43:38 PM 40.2628 -123.8400 160° South 290 334 19,000 836 Climbing Oakland Center
Sat 04:44:39 PM 40.1831 -123.8042 161° South 299 344 19,800 787 Climbing Oakland Center
Sat 04:45:40 PM 40.1031 -123.7667 160° South 306 352 20,600 787 Climbing Oakland Center
Sat 04:46:41 PM 40.0211 -123.7297 161° South 307 353 21,400 732 Climbing Oakland Center
Sat 04:47:43 PM 39.9378 -123.6933 161° South 311 358 22,100 683 Climbing Oakland Center
Sat 04:48:44 PM 39.8544 -123.6558 161° South 313 360 22,800 639 Climbing Oakland Center
Sat 04:49:45 PM 39.7703 -123.6175 161° South 318 366 23,400 590 Climbing Oakland Center
Sat 04:50:46 PM 39.6850 -123.5792 161° South 319 367 24,000 590 Climbing Oakland Center
Sat 04:51:47 PM 39.5997 -123.5375 159° South 325 374 24,600 492 Climbing Oakland Center
Sat 04:52:48 PM 39.5147 -123.4997 161° South 325 374 25,000 197 Climbing Oakland Center
Sat 04:53:49 PM 39.4111 -123.4542 161° South 333 383 25,000  Level Oakland Center
Sat 04:54:51 PM 39.3222 -123.4122 160° South 338 389 25,000  Level Oakland Center
Sat 04:55:52 PM 39.2328 -123.3739 162° South 338 389 25,000  Level Oakland Center
Sat 04:56:53 PM 39.1442 -123.3317 160° South 339 390 25,000 -49 Level Oakland Center
Sat 04:57:54 PM 39.0528 -123.2931 162° South 342 394 24,900 -393 Descending Oakland Center
Sat 04:58:55 PM 38.9614 -123.2522 161° South 346 398 24,200 -1,082 Descending Oakland Center
Sat 04:59:56 PM 38.8611 -123.2097 162° South 376 433 22,700 -1,512 Descending Oakland Center
Sat 05:00:58 PM 38.7608 -123.1675 162° South 378 435 21,100 -2,000 Descending Oakland Center
Sat 05:01:59 PM 38.6411 -123.1131 160° South 381 438 18,600 -2,213 Descending Oakland Center
Sat 05:03:00 PM 38.5425 -123.0703 161° South 380 437 16,600 -1,967 Descending Oakland Center
Sat 05:04:01 PM 38.4489 -123.0297 161° South 360 414 14,600 -1,820 Descending Oakland Center
Sat 05:05:02 PM 38.3594 -122.9908 161° South 344 396 12,900 -1,366 Descending Oakland Center
Sat 05:06:04 PM 38.2753 -122.9525 160° South 327 376 11,800 -927 Descending Oakland Center
Sat 05:07:05 PM 38.1917 -122.9164 161° South 322 371 11,000 -393 Descending Oakland Center
Sat 05:08:06 PM 38.1122 -122.8819 161° South 312 359 11,000  Level Oakland Center
Sat 05:09:07 PM 38.0450 -122.8306 149° Southeast 296 341 11,000  Level Oakland Center
Sat 05:10:08 PM 37.9842 -122.7644 139° Southeast 291 335 11,000  Level Oakland Center
Sat 05:11:09 PM 37.9122 -122.6872 140° Southeast 291 335 11,000  Level Oakland Center
Sat 05:12:11 PM 37.8542 -122.6247 140° Southeast 287 330 11,000  Level Oakland Center
Sat 05:13:12 PM 37.7942 -122.5611 140° Southeast 287 330 11,000  Level Oakland Center
Sat 05:14:13 PM 37.7489 -122.4844 127° Southeast 283 326 11,000 -246 Level Oakland Center
Sat 05:15:14 PM 37.7169 -122.3953 114° Southeast 282 325 10,500 -970 Descending Oakland Center
Sat 05:15:52 PM 37.7000 -122.3167 105° East 266 306 9,400 -1,469 Descending Northern Cal TRACON
Sat 05:16:52 PM 37.6667 -122.2333 117° Southeast 281 323 8,100 -1,300 Descending Northern Cal TRACON
Sat 05:17:52 PM 37.6333 -122.1667 122° Southeast 246 283 6,800 -1,316 Descending Northern Cal TRACON
Sat 05:18:46 PM 37.6000 -122.1000 122° Southeast 244 281 5,600 -1,450 Descending Northern Cal TRACON
Sat 05:19:52 PM 37.5333 -122.1333 202° Southwest 227 261 3,900 -1,050 Descending Northern Cal TRACON
Sat 05:20:46 PM 37.5500 -122.1833 293° West 208 239 3,500 -533 Descending Northern Cal TRACON
Sat 05:21:22 PM 37.5564 -122.2267 281° West 208 239 3,100 -1,113 Descending Oakland Center
Sat 05:22:23 PM 37.5767 -122.2775 297° West 182 209 1,700 -1,033 Descending Oakland Center
Sat 05:23:24 PM 37.5928 -122.3144 299° West 145 167 1,000 -634 Descending Oakland Center
Sat 05:24:26 PM 37.6072 -122.3494 298° West 126 145 400 -581 Descending Oakland Center

Login

Don't have an account? Register now (free) for customized features, flight alerts, and more!